createdAt,value
2019-04-28T00:02:01.449Z,8.13
2019-04-28T00:04:33.508Z,8.70
2019-04-28T00:07:11.957Z,8.10
2019-04-28T00:09:43.655Z,8.87
2019-04-28T00:12:16.337Z,9.20
2019-04-28T00:14:48.097Z,8.30
2019-04-28T00:17:21.155Z,10.17
2019-04-28T00:19:57.746Z,9.63
2019-04-28T00:22:48.370Z,8.87
2019-04-28T00:25:26.723Z,8.67
2019-04-28T00:27:59.363Z,8.70
2019-04-28T00:30:31.691Z,7.73
2019-04-28T00:33:03.451Z,8.97
2019-04-28T00:35:35.366Z,8.70
2019-04-28T00:38:06.911Z,8.27
2019-04-28T00:40:38.422Z,8.97
2019-04-28T00:43:10.837Z,8.80
2019-04-28T00:45:42.899Z,7.93
2019-04-28T00:48:14.671Z,7.97
2019-04-28T00:50:46.386Z,8.77
2019-04-28T00:53:20.687Z,9.07
2019-04-28T00:55:54.706Z,8.20
2019-04-28T00:58:26.558Z,6.93
2019-04-28T01:01:01.485Z,8.23
2019-04-28T01:03:39.087Z,8.27
2019-04-28T01:06:14.065Z,7.87
2019-04-28T01:08:47.695Z,8.33
2019-04-28T01:11:19.413Z,8.17
2019-04-28T01:13:51.757Z,8.57
2019-04-28T01:16:33.149Z,7.33
2019-04-28T01:19:10.184Z,9.27
2019-04-28T01:22:00.343Z,9.20
2019-04-28T01:24:35.442Z,8.67
2019-04-28T01:27:10.339Z,9.60
2019-04-28T01:29:42.026Z,9.93
2019-04-28T01:32:25.880Z,9.60
2019-04-28T01:34:57.495Z,11.07
2019-04-28T01:37:30.793Z,9.63
2019-04-28T01:40:02.339Z,9.40
2019-04-28T01:42:42.748Z,9.07
2019-04-28T01:45:14.790Z,9.67
2019-04-28T01:47:50.416Z,10.40
2019-04-28T01:50:22.355Z,8.50
2019-04-28T01:52:59.729Z,10.67
2019-04-28T01:55:31.075Z,9.53
2019-04-28T01:58:02.659Z,10.37
2019-04-28T02:00:34.317Z,10.70
2019-04-28T02:03:05.894Z,10.50
2019-04-28T02:05:37.416Z,11.40
2019-04-28T02:08:10.678Z,10.37
2019-04-28T02:10:42.218Z,9.83
2019-04-28T02:13:16.653Z,9.70
2019-04-28T02:15:51.747Z,10.37
2019-04-28T02:18:23.269Z,10.67
2019-04-28T02:21:05.077Z,10.07
2019-04-28T02:23:39.580Z,10.60
2019-04-28T02:26:10.929Z,9.23
2019-04-28T02:28:45.473Z,9.57
2019-04-28T02:31:17.231Z,9.67
2019-04-28T02:33:50.928Z,9.97
2019-04-28T02:36:22.192Z,10.20
2019-04-28T02:38:56.760Z,9.33
2019-04-28T02:41:30.650Z,9.53
2019-04-28T02:44:04.886Z,8.63
2019-04-28T02:46:43.921Z,9.13
2019-04-28T02:49:22.260Z,8.67
2019-04-28T02:52:20.629Z,8.07
2019-04-28T02:54:52.504Z,9.73
2019-04-28T02:57:24.107Z,8.73
2019-04-28T02:59:55.892Z,8.80
2019-04-28T03:02:27.459Z,8.70
2019-04-28T03:05:00.622Z,8.70
2019-04-28T03:07:32.289Z,8.33
2019-04-28T03:10:04.120Z,9.87
2019-04-28T03:12:41.411Z,8.70
2019-04-28T03:15:12.560Z,8.43
2019-04-28T03:17:44.296Z,8.90
2019-04-28T03:20:15.954Z,10.43
2019-04-28T03:22:47.455Z,9.53
2019-04-28T03:25:52.909Z,8.67
2019-04-28T03:28:36.160Z,9.70
2019-04-28T03:32:01.095Z,8.37
2019-04-28T03:34:05.497Z,8.57
2019-04-28T03:36:37.021Z,9.07
2019-04-28T03:39:11.040Z,9.10
2019-04-28T03:41:42.306Z,9.17
2019-04-28T03:44:13.828Z,8.07
2019-04-28T03:46:51.193Z,8.80
2019-04-28T03:49:33.027Z,8.87
2019-04-28T03:52:06.035Z,7.77
2019-04-28T03:54:37.561Z,7.80
2019-04-28T03:57:11.388Z,8.07
2019-04-28T03:59:43.795Z,8.77
2019-04-28T04:02:15.639Z,8.50
2019-04-28T04:04:47.229Z,8.37
2019-04-28T04:07:21.242Z,7.07
2019-04-28T04:10:11.534Z,7.73
2019-04-28T04:13:00.923Z,8.60
2019-04-28T04:15:53.867Z,8.53
2019-04-28T04:18:32.876Z,7.57
2019-04-28T04:21:04.517Z,8.10
2019-04-28T04:23:36.029Z,7.47
2019-04-28T04:26:07.616Z,8.50
2019-04-28T04:28:41.583Z,8.63
2019-04-28T04:31:13.511Z,7.30
2019-04-28T04:33:45.028Z,6.80
2019-04-28T04:36:16.568Z,7.90
2019-04-28T04:38:50.933Z,9.47
2019-04-28T04:41:21.550Z,7.83
2019-04-28T04:43:53.266Z,8.23
2019-04-28T04:46:25.876Z,8.23
2019-04-28T04:48:57.354Z,8.10
2019-04-28T04:51:30.606Z,8.67
2019-04-28T04:54:02.172Z,8.37
2019-04-28T04:56:34.791Z,7.50
2019-04-28T04:59:06.402Z,8.43
2019-04-28T05:01:54.054Z,7.47
2019-04-28T05:04:33.003Z,7.00
2019-04-28T05:07:04.608Z,7.40
2019-04-28T05:09:36.160Z,7.17
2019-04-28T05:12:09.634Z,7.80
2019-04-28T05:14:40.918Z,6.90
2019-04-28T05:17:12.514Z,7.30
2019-04-28T05:19:44.058Z,7.20
2019-04-28T05:22:17.208Z,8.23
2019-04-28T05:24:54.563Z,7.07
2019-04-28T05:27:26.343Z,6.90
2019-04-28T05:30:02.416Z,7.17
2019-04-28T05:32:42.475Z,7.93
2019-04-28T05:35:05.243Z,7.57
2019-04-28T05:37:36.800Z,7.10
2019-04-28T05:40:10.307Z,7.07
2019-04-28T05:43:00.523Z,6.93
2019-04-28T05:45:32.474Z,7.00
2019-04-28T05:48:04.118Z,6.60
2019-04-28T05:50:51.312Z,6.30
2019-04-28T05:53:53.966Z,8.87
2019-04-28T05:56:39.639Z,8.00
2019-04-28T05:59:30.038Z,7.93
2019-04-28T06:02:10.588Z,6.77
2019-04-28T06:04:42.707Z,7.23
2019-04-28T06:07:26.831Z,8.40
2019-04-28T06:10:00.136Z,7.90
2019-04-28T06:12:32.500Z,7.37
2019-04-28T06:15:04.327Z,6.83
2019-04-28T06:17:35.990Z,6.70
2019-04-28T06:20:07.534Z,7.13
2019-04-28T06:22:39.215Z,7.50
2019-04-28T06:25:10.751Z,6.73
2019-04-28T06:27:42.302Z,7.90
2019-04-28T06:30:13.937Z,6.30
2019-04-28T06:32:45.510Z,6.83
2019-04-28T06:35:17.289Z,7.50
2019-04-28T06:37:48.818Z,6.73
2019-04-28T06:40:20.382Z,6.50
2019-04-28T06:42:51.844Z,7.03
2019-04-28T06:45:23.458Z,6.90
2019-04-28T06:47:55.021Z,6.53
2019-04-28T06:50:26.614Z,6.80
2019-04-28T06:52:58.171Z,7.10
2019-04-28T06:55:29.734Z,7.87
2019-04-28T06:58:03.573Z,6.50
2019-04-28T07:00:35.148Z,7.30
2019-04-28T07:03:09.342Z,6.20
2019-04-28T07:05:40.094Z,6.90
2019-04-28T07:08:13.910Z,6.90
2019-04-28T07:10:44.975Z,8.67
2019-04-28T07:13:16.556Z,7.20
2019-04-28T07:15:48.171Z,8.80
2019-04-28T07:18:19.726Z,7.30
2019-04-28T07:20:57.338Z,7.10
2019-04-28T07:23:29.071Z,7.97
2019-04-28T07:26:00.667Z,7.33
2019-04-28T07:28:32.335Z,7.03
2019-04-28T07:31:04.048Z,6.73
2019-04-28T07:33:36.438Z,7.00
2019-04-28T07:36:08.395Z,6.70
2019-04-28T07:38:40.179Z,6.33
2019-04-28T07:41:11.771Z,7.33
2019-04-28T07:43:43.403Z,7.77
2019-04-28T07:46:15.029Z,7.60
2019-04-28T07:48:46.604Z,8.37
2019-04-28T07:51:19.507Z,8.53
2019-04-28T07:53:55.792Z,8.73
2019-04-28T07:56:27.395Z,8.50
2019-04-28T07:58:58.975Z,8.63
2019-04-28T08:01:30.761Z,9.50
2019-04-28T08:04:02.375Z,8.77
2019-04-28T08:06:34.043Z,10.47
2019-04-28T08:09:09.746Z,10.00
2019-04-28T08:11:41.907Z,10.20
2019-04-28T08:14:13.559Z,9.50
2019-04-28T08:16:45.151Z,9.17
2019-04-28T08:19:16.889Z,8.40
2019-04-28T08:21:48.407Z,9.53
2019-04-28T08:24:20.017Z,9.70
2019-04-28T08:26:51.661Z,9.07
2019-04-28T08:29:23.265Z,10.20
2019-04-28T08:32:08.824Z,10.90
2019-04-28T08:34:40.391Z,10.47
2019-04-28T08:37:12.017Z,11.10
2019-04-28T08:39:43.559Z,10.40
2019-04-28T08:42:15.069Z,12.13
2019-04-28T08:44:46.769Z,10.67
2019-04-28T08:47:18.489Z,11.00
2019-04-28T08:49:50.075Z,12.37
2019-04-28T08:52:21.692Z,11.03
2019-04-28T08:54:54.401Z,12.00
2019-04-28T08:57:26.146Z,11.87
2019-04-28T08:59:57.639Z,9.50
2019-04-28T09:02:29.399Z,10.00
2019-04-28T09:05:01.095Z,9.70
2019-04-28T09:07:33.162Z,8.47
2019-04-28T09:10:05.596Z,7.80
2019-04-28T09:12:37.411Z,7.00
2019-04-28T09:15:09.596Z,9.23
2019-04-28T09:17:41.243Z,9.10
2019-04-28T09:20:12.794Z,7.70
2019-04-28T09:22:44.358Z,5.87
2019-04-28T09:25:15.943Z,6.33
2019-04-28T09:27:47.479Z,6.23
2019-04-28T09:30:19.133Z,6.93
2019-04-28T09:32:50.928Z,5.47
2019-04-28T09:35:22.476Z,6.00
2019-04-28T09:37:55.037Z,6.37
2019-04-28T09:40:26.643Z,4.40
2019-04-28T09:43:18.329Z,4.53
2019-04-28T09:45:55.518Z,4.27
2019-04-28T09:48:27.245Z,4.27
2019-04-28T09:50:58.929Z,4.47
2019-04-28T09:53:30.618Z,4.77
2019-04-28T09:56:02.308Z,4.40
2019-04-28T09:58:34.201Z,3.60
2019-04-28T10:01:06.041Z,4.73
2019-04-28T10:03:37.611Z,3.90
2019-04-28T10:06:09.209Z,5.57
2019-04-28T10:08:40.864Z,4.70
2019-04-28T10:11:12.406Z,4.40
2019-04-28T10:13:43.985Z,4.27
2019-04-28T10:16:15.673Z,3.83
2019-04-28T10:18:47.541Z,4.43
2019-04-28T10:21:19.118Z,5.50
2019-04-28T10:23:50.872Z,5.07
2019-04-28T10:26:22.439Z,3.70
2019-04-28T10:28:53.985Z,4.53
2019-04-28T10:31:25.619Z,3.53
2019-04-28T10:34:01.301Z,3.50
2019-04-28T10:36:34.475Z,3.97
2019-04-28T10:39:24.022Z,3.17
2019-04-28T10:41:55.639Z,2.53
2019-04-28T10:44:28.912Z,2.30
2019-04-28T10:47:00.625Z,2.83
2019-04-28T10:49:32.435Z,2.60
2019-04-28T10:52:04.134Z,3.07
2019-04-28T10:54:35.723Z,2.40
2019-04-28T10:57:07.575Z,2.20
2019-04-28T10:59:39.302Z,1.70
2019-04-28T11:02:11.039Z,1.87
2019-04-28T11:04:51.763Z,1.87
2019-04-28T11:07:24.811Z,2.10
2019-04-28T11:10:18.984Z,2.50
2019-04-28T11:12:50.746Z,2.80
2019-04-28T11:15:28.233Z,3.33
2019-04-28T11:17:59.939Z,3.87
2019-04-28T11:20:49.682Z,3.20
2019-04-28T11:23:43.040Z,3.13
2019-04-28T11:26:14.960Z,3.80
2019-04-28T11:28:46.740Z,3.67
2019-04-28T11:31:18.570Z,4.87
2019-04-28T11:34:06.508Z,4.07
2019-04-28T11:36:38.143Z,4.17
2019-04-28T11:39:11.705Z,4.93
2019-04-28T11:41:45.722Z,5.53
2019-04-28T11:44:21.052Z,5.57
2019-04-28T11:46:52.831Z,3.73
2019-04-28T11:49:24.717Z,2.57
2019-04-28T11:51:56.865Z,3.73
2019-04-28T11:54:28.658Z,3.70
2019-04-28T11:57:01.648Z,3.60
2019-04-28T11:59:33.474Z,2.40
2019-04-28T12:02:05.354Z,3.10
2019-04-28T12:04:36.972Z,3.23
2019-04-28T12:07:09.042Z,4.50
2019-04-28T12:10:04.662Z,2.83
2019-04-28T12:13:02.528Z,3.27
2019-04-28T12:16:02.134Z,3.43
2019-04-28T12:18:57.396Z,3.30
2019-04-28T12:21:33.122Z,2.97
2019-04-28T12:24:04.870Z,3.00
2019-04-28T12:26:36.668Z,3.20
2019-04-28T12:29:10.245Z,4.10
2019-04-28T12:31:42.206Z,3.40
2019-04-28T12:34:15.092Z,3.50
2019-04-28T12:36:46.753Z,2.97
2019-04-28T12:39:21.099Z,3.50
2019-04-28T12:41:52.911Z,2.43
2019-04-28T12:44:27.770Z,2.90
2019-04-28T12:46:59.923Z,2.20
2019-04-28T12:49:37.450Z,2.43
2019-04-28T12:52:09.675Z,2.80
2019-04-28T12:54:41.466Z,2.57
2019-04-28T12:57:13.165Z,2.40
2019-04-28T12:59:53.084Z,2.63
2019-04-28T13:02:52.258Z,2.60
2019-04-28T13:05:24.130Z,2.60
2019-04-28T13:07:55.706Z,2.17
2019-04-28T13:10:27.490Z,2.20
2019-04-28T13:12:59.072Z,2.67
2019-04-28T13:15:30.634Z,2.73
2019-04-28T13:18:05.748Z,2.53
2019-04-28T13:20:39.990Z,2.47
2019-04-28T13:23:16.692Z,3.50
2019-04-28T13:25:50.490Z,2.40
2019-04-28T13:28:22.235Z,2.23
2019-04-28T13:30:55.309Z,3.03
2019-04-28T13:33:26.895Z,2.63
2019-04-28T13:35:58.733Z,2.23
2019-04-28T13:38:30.390Z,3.03
2019-04-28T13:41:02.135Z,2.23
2019-04-28T13:43:34.296Z,2.03
2019-04-28T13:46:06.459Z,3.10
2019-04-28T13:48:38.132Z,2.30
2019-04-28T13:51:09.746Z,2.00
2019-04-28T13:53:41.295Z,2.40
2019-04-28T13:56:13.111Z,3.03
2019-04-28T13:58:56.560Z,2.30
2019-04-28T14:01:47.405Z,2.80
2019-04-28T14:04:39.251Z,2.47
2019-04-28T14:07:11.079Z,3.10
2019-04-28T14:09:43.899Z,2.60
2019-04-28T14:12:16.479Z,2.17
2019-04-28T14:14:48.194Z,2.33
2019-04-28T14:17:19.975Z,2.40
2019-04-28T14:19:53.316Z,2.60
2019-04-28T14:22:25.071Z,2.83
2019-04-28T14:24:56.823Z,2.60
2019-04-28T14:27:28.480Z,2.40
2019-04-28T14:30:00.169Z,2.27
2019-04-28T14:32:31.778Z,3.13
2019-04-28T14:35:03.423Z,2.27
2019-04-28T14:37:35.188Z,1.93
2019-04-28T14:40:07.834Z,2.60
2019-04-28T14:42:39.491Z,2.60
2019-04-28T14:45:11.839Z,2.30
2019-04-28T14:47:43.410Z,2.23
2019-04-28T14:50:15.373Z,1.90
2019-04-28T14:52:47.041Z,1.80
2019-04-28T14:55:18.863Z,1.90
2019-04-28T14:57:50.686Z,1.93
2019-04-28T15:00:26.958Z,1.53
2019-04-28T15:03:03.021Z,1.67
2019-04-28T15:05:57.011Z,1.50
2019-04-28T15:08:47.583Z,1.70
2019-04-28T15:11:38.166Z,1.67
2019-04-28T15:14:12.703Z,2.03
2019-04-28T15:16:44.415Z,1.40
2019-04-28T15:19:16.676Z,1.90
2019-04-28T15:21:48.363Z,1.93
2019-04-28T15:24:22.051Z,1.83
2019-04-28T15:26:55.214Z,1.80
2019-04-28T15:29:26.837Z,1.93
2019-04-28T15:31:58.515Z,1.90
2019-04-28T15:34:30.043Z,1.70
2019-04-28T15:37:09.449Z,1.80
2019-04-28T15:39:34.879Z,1.80
2019-04-28T15:42:06.424Z,2.10
2019-04-28T15:44:38.086Z,1.40
2019-04-28T15:47:09.643Z,1.50
2019-04-28T15:49:41.238Z,2.03
2019-04-28T15:52:12.832Z,2.07
2019-04-28T15:54:44.448Z,1.60
2019-04-28T15:57:16.015Z,1.60
2019-04-28T15:59:47.726Z,1.70
2019-04-28T16:02:19.250Z,1.90
2019-04-28T16:04:50.890Z,1.90
2019-04-28T16:07:25.027Z,1.93
2019-04-28T16:09:55.798Z,1.70
2019-04-28T16:12:27.361Z,1.90
2019-04-28T16:14:58.952Z,1.90
2019-04-28T16:17:48.705Z,1.83
2019-04-28T16:20:29.801Z,2.07
2019-04-28T16:23:03.903Z,2.20
2019-04-28T16:25:35.762Z,2.00
2019-04-28T16:28:07.437Z,2.10
2019-04-28T16:30:39.286Z,2.07
2019-04-28T16:33:10.854Z,2.07
2019-04-28T16:35:42.436Z,2.00
2019-04-28T16:38:15.075Z,2.10
2019-04-28T16:41:00.456Z,2.20
2019-04-28T16:43:55.721Z,2.10
2019-04-28T16:46:29.141Z,2.90
2019-04-28T16:49:00.657Z,2.97
2019-04-28T16:51:32.277Z,2.40
2019-04-28T16:54:03.935Z,2.40
2019-04-28T16:56:54.475Z,2.43
2019-04-28T16:59:46.142Z,3.00
2019-04-28T17:02:27.053Z,2.60
2019-04-28T17:04:58.743Z,2.30
2019-04-28T17:07:32.009Z,2.40
2019-04-28T17:10:03.945Z,2.77
2019-04-28T17:12:35.680Z,2.50
2019-04-28T17:15:08.186Z,2.47
2019-04-28T17:17:40.594Z,2.90
2019-04-28T17:20:12.821Z,2.83
2019-04-28T17:22:44.622Z,2.50
2019-04-28T17:25:16.524Z,2.63
2019-04-28T17:27:50.633Z,2.43
2019-04-28T17:30:25.652Z,3.00
2019-04-28T17:32:57.797Z,2.40
2019-04-28T17:35:29.682Z,2.60
2019-04-28T17:38:06.781Z,3.10
2019-04-28T17:40:35.016Z,2.60
2019-04-28T17:43:07.234Z,1.97
2019-04-28T17:45:38.893Z,2.13
2019-04-28T17:48:25.116Z,2.63
2019-04-28T17:50:56.689Z,2.23
2019-04-28T17:53:31.055Z,2.63
2019-04-28T17:56:02.690Z,2.33
2019-04-28T17:58:34.597Z,2.20
2019-04-28T18:01:26.930Z,1.90
2019-04-28T18:04:17.707Z,2.20
2019-04-28T18:06:54.516Z,2.00
2019-04-28T18:09:26.343Z,2.40
2019-04-28T18:11:57.957Z,2.30
2019-04-28T18:14:29.829Z,1.73
2019-04-28T18:17:25.033Z,2.27
2019-04-28T18:19:59.282Z,2.30
2019-04-28T18:22:30.967Z,2.00
2019-04-28T18:25:02.620Z,1.80
2019-04-28T18:27:34.413Z,1.70
2019-04-28T18:30:06.368Z,2.53
2019-04-28T18:33:01.398Z,2.30
2019-04-28T18:35:40.608Z,2.23
2019-04-28T18:38:34.704Z,2.50
2019-04-28T18:41:12.980Z,2.00
2019-04-28T18:44:06.737Z,1.90
2019-04-28T18:46:38.448Z,2.13
2019-04-28T18:49:10.258Z,2.50
2019-04-28T18:51:43.204Z,3.60
2019-04-28T18:54:17.646Z,2.83
2019-04-28T18:56:52.829Z,2.83
2019-04-28T18:59:28.377Z,2.50
2019-04-28T19:02:19.179Z,3.00
2019-04-28T19:04:50.726Z,3.00
2019-04-28T19:07:39.128Z,3.00
2019-04-28T19:10:18.054Z,2.60
2019-04-28T19:13:08.621Z,2.90
2019-04-28T19:16:14.987Z,2.50
2019-04-28T19:18:53.755Z,3.87
2019-04-28T19:21:33.430Z,3.47
2019-04-28T19:24:05.885Z,3.47
2019-04-28T19:26:37.577Z,2.83
2019-04-28T19:29:09.398Z,3.20
2019-04-28T19:31:41.275Z,3.00
2019-04-28T19:34:14.402Z,3.43
2019-04-28T19:36:46.904Z,3.20
2019-04-28T19:39:19.760Z,3.20
2019-04-28T19:41:53.203Z,3.70
2019-04-28T19:44:25.337Z,3.30
2019-04-28T19:46:57.004Z,3.37
2019-04-28T19:49:28.820Z,4.80
2019-04-28T19:52:01.732Z,2.93
2019-04-28T19:54:37.474Z,3.40
2019-04-28T19:57:19.748Z,2.90
2019-04-28T20:00:10.477Z,3.33
2019-04-28T20:02:46.015Z,3.00
2019-04-28T20:05:17.607Z,3.30
2019-04-28T20:07:49.261Z,3.77
2019-04-28T20:10:20.885Z,3.07
2019-04-28T20:12:52.477Z,3.23
2019-04-28T20:15:24.339Z,3.40
2019-04-28T20:17:56.343Z,3.67
2019-04-28T20:20:28.021Z,3.23
2019-04-28T20:22:59.671Z,3.30
2019-04-28T20:25:32.166Z,2.90
2019-04-28T20:28:03.778Z,3.10
2019-04-28T20:30:38.494Z,2.97
2019-04-28T20:33:10.187Z,4.00
2019-04-28T20:35:47.082Z,3.20
2019-04-28T20:38:31.146Z,3.10
2019-04-28T20:41:24.520Z,3.77
2019-04-28T20:43:57.137Z,3.30
2019-04-28T20:46:28.714Z,3.07
2019-04-28T20:49:00.615Z,2.83
2019-04-28T20:51:32.457Z,3.63
2019-04-28T20:54:04.227Z,3.07
2019-04-28T20:56:38.943Z,3.47
2019-04-28T20:59:12.176Z,4.10
2019-04-28T21:01:43.935Z,3.40
2019-04-28T21:04:15.725Z,3.70
2019-04-28T21:06:47.642Z,4.33
2019-04-28T21:09:19.324Z,4.00
2019-04-28T21:11:56.477Z,4.00
2019-04-28T21:14:28.177Z,3.47
2019-04-28T21:17:01.878Z,4.80
2019-04-28T21:19:33.737Z,4.00
2019-04-28T21:22:05.463Z,4.30
2019-04-28T21:24:37.194Z,3.60
2019-04-28T21:27:08.944Z,4.83
2019-04-28T21:29:43.765Z,3.93
2019-04-28T21:32:15.617Z,4.07
2019-04-28T21:34:47.424Z,4.00
2019-04-28T21:37:20.758Z,4.00
2019-04-28T21:39:55.500Z,4.73
2019-04-28T21:42:29.423Z,4.30
2019-04-28T21:45:25.535Z,4.13
2019-04-28T21:47:57.233Z,4.07
2019-04-28T21:50:32.041Z,4.20
2019-04-28T21:53:19.015Z,3.97
2019-04-28T21:55:51.773Z,3.80
2019-04-28T21:58:33.399Z,4.40
2019-04-28T22:01:04.342Z,3.60
2019-04-28T22:03:37.233Z,3.90
2019-04-28T22:06:09.084Z,4.33
2019-04-28T22:08:40.926Z,3.83
2019-04-28T22:11:12.669Z,4.30
2019-04-28T22:13:44.582Z,4.77
2019-04-28T22:16:16.378Z,4.37
2019-04-28T22:18:48.205Z,4.93
2019-04-28T22:21:19.821Z,4.60
2019-04-28T22:24:11.300Z,4.63
2019-04-28T22:26:47.697Z,5.57
2019-04-28T22:29:19.514Z,4.83
2019-04-28T22:31:53.463Z,5.33
2019-04-28T22:34:25.249Z,4.73
2019-04-28T22:37:04.967Z,5.60
2019-04-28T22:39:36.556Z,5.47
2019-04-28T22:42:12.944Z,5.77
2019-04-28T22:44:44.705Z,6.17
2019-04-28T22:47:18.789Z,5.77
2019-04-28T22:49:50.482Z,5.97
2019-04-28T22:52:22.131Z,7.00
2019-04-28T22:55:13.741Z,6.57
2019-04-28T22:57:52.589Z,6.80
2019-04-28T23:00:41.299Z,6.57
2019-04-28T23:03:19.085Z,6.60
2019-04-28T23:05:50.869Z,6.30
2019-04-28T23:08:22.619Z,6.33
2019-04-28T23:10:56.270Z,6.40
2019-04-28T23:13:27.795Z,6.13
2019-04-28T23:15:59.396Z,6.47
2019-04-28T23:18:31.369Z,6.97
2019-04-28T23:21:08.753Z,6.97
2019-04-28T23:23:40.349Z,6.80
2019-04-28T23:26:11.887Z,6.67
2019-04-28T23:28:45.425Z,6.53
2019-04-28T23:31:16.940Z,7.67
2019-04-28T23:33:48.586Z,7.53
2019-04-28T23:36:20.380Z,6.53
2019-04-28T23:39:10.860Z,7.30
2019-04-28T23:41:48.459Z,7.10
2019-04-28T23:44:20.189Z,7.07
2019-04-28T23:46:59.035Z,6.67
2019-04-28T23:49:31.314Z,6.87
2019-04-28T23:52:20.597Z,7.77
2019-04-28T23:54:53.409Z,7.37
2019-04-28T23:57:25.054Z,8.00
2019-04-28T23:59:56.587Z,7.27
